Ice Star — OUJK2 — position and weather

sailwx.info

Track history (hours):
 
Tides and Currents Weather Stations Pressure Air Temp Water Temp Dewpoint Dewpoint Depression Visibility Wind Speed Wind Dir Waves Ship Positions

Ice Star

Last reported at 2014-Jul-10 00:16 UTC. Time now 2014-Jul-24 15:29 UTC.
Position N 31°12' E 032°20'.
Warning: this ship's position is 14 days out of date.

Length 367 m; draft 13.4 m.

Type: Ship. MMSI: 220596000.

Date/timePositionNaut miles runAvg speedWind from/ knotsBaromVisibWave heightAir tempDewpointWater temp
2014-Jul-10 00:16N 31°12' E 032°20'13 7.6
2014-Jul-09 22:33N 31°25' E 032°21'2 2.1
2014-Jul-09 21:32N 31°26' E 032°19'0 0.0
2014-Jul-09 20:32N 31°26' E 032°19'0 0.0
2014-Jul-09 19:32N 31°26' E 032°19'0 0.0
2014-Jul-09 18:32N 31°26' E 032°19'0 0.3
2014-Jul-09 17:33N 31°26' E 032°19'4 4.4
2014-Jul-09 16:33N 31°29' E 032°15'1111.2
2014-Jul-09 15:33N 31°37' E 032°06'1816.4
2014-Jul-09 14:27N 31°50' E 031°51'1819.8
2014-Jul-09 13:34N 32°01' E 031°35'2019.6
2014-Jul-09 12:33N 32°14' E 031°16'2019.9
2014-Jul-09 11:33N 32°26' E 030°58'2019.8
2014-Jul-09 10:33N 32°39' E 030°40'2019.7
2014-Jul-09 09:34N 32°51' E 030°21'2019.8
2014-Jul-09 08:34N 33°03' E 030°03'2019.9
2014-Jul-09 07:34N 33°16' E 029°44'2020.0
2014-Jul-09 06:33N 33°29' E 029°26'2420.1
2014-Jul-09 05:23N 33°44' E 029°04'2119.8
2014-Jul-09 04:20N 33°56' E 028°45'2519.9
2014-Jul-09 03:04N 34°12' E 028°21'13120.0
2014-Jul-08 20:33N 35°34' E 026°17'2019.7
2014-Jul-08 19:31N 35°44' E 025°55'1919.9
2014-Jul-08 18:33N 35°55' E 025°36'1919.4
2014-Jul-08 17:33N 36°05' E 025°15'1919.3
2014-Jul-08 16:33N 36°15' E 024°54'1919.2
2014-Jul-08 15:33N 36°24' E 024°34'1919.2
2014-Jul-08 14:33N 36°34' E 024°13'1919.3
2014-Jul-08 13:34N 36°52' E 024°04'5719.1
2014-Jul-08 10:33N 37°46' E 023°39'1111.3
2014-Jul-08 09:33N 37°57' E 023°36'0 0.4
2014-Jul-08 08:29N 37°57' E 023°35'0 0.0
2014-Jul-08 07:32N 37°57' E 023°35'0 0.0
2014-Jul-08 06:32N 37°57' E 023°35'0 0.0
2014-Jul-08 05:29N 37°57' E 023°35'0 0.0
2014-Jul-08 04:32N 37°57' E 023°35'0 0.0
2014-Jul-08 03:32N 37°57' E 023°35'0 0.0
2014-Jul-08 02:32N 37°57' E 023°35'0 0.0
2014-Jul-08 01:32N 37°57' E 023°35'0 0.0
2014-Jul-08 00:32N 37°57' E 023°35'0 0.0
2014-Jul-07 23:32N 37°57' E 023°35'0 0.0
2014-Jul-07 22:32N 37°57' E 023°35'0 0.0
2014-Jul-07 21:32N 37°57' E 023°35'0 0.0
2014-Jul-07 20:32N 37°57' E 023°35'0 0.0
2014-Jul-07 19:32N 37°57' E 023°35'0 0.0
2014-Jul-07 18:32N 37°57' E 023°35'0 0.0
2014-Jul-07 17:32N 37°57' E 023°35'0 0.0
2014-Jul-07 16:32N 37°57' E 023°35'0 0.0
2014-Jul-07 15:32N 37°57' E 023°35'0 0.0
2014-Jul-07 14:32N 37°57' E 023°35'0 0.0
2014-Jul-07 13:32N 37°57' E 023°35'0 0.0
2014-Jul-07 12:33N 37°57' E 023°35'8 7.7
2014-Jul-07 11:33N 37°50' E 023°39'1414.0
2014-Jul-07 10:33N 37°37' E 023°46'1313.1
2014-Jul-07 09:32N 37°24' E 023°42'1412.9
2014-Jul-07 08:25N 37°10' E 023°39'1113.0
2014-Jul-07 07:33N 36°59' E 023°37'1312.6
2014-Jul-07 06:33N 36°47' E 023°31'1312.7
2014-Jul-07 05:31N 36°36' E 023°22'1212.7
2014-Jul-07 04:33N 36°25' E 023°15'38017.1
2014-Jul-06 06:24N 36°20' E 015°23'1517.5
2014-Jul-06 05:33N 36°20' E 015°05'1817.7
2014-Jul-06 04:33N 36°20' E 014°43'1817.5
2014-Jul-06 03:33N 36°24' E 014°22'1818.0
2014-Jul-06 02:34N 36°30' E 014°01'1818.0
2014-Jul-06 01:33N 36°36' E 013°39'1817.9
2014-Jul-06 00:33N 36°42' E 013°18'1818.2
2014-Jul-05 23:33N 36°48' E 012°57'1818.3
2014-Jul-05 22:34N 36°55' E 012°36'1818.2
2014-Jul-05 21:33N 37°01' E 012°15'1818.2
2014-Jul-05 20:33N 37°08' E 011°53'1818.3
2014-Jul-05 19:33N 37°14' E 011°32'1818.1
2014-Jul-05 18:33N 37°22' E 011°11'1818.3
2014-Jul-05 17:33N 37°26' E 010°49'1818.1
2014-Jul-05 16:33N 37°31' E 010°27'1918.6
2014-Jul-05 15:33N 37°33' E 010°04'1919.2
2014-Jul-05 14:33N 37°30' E 009°40'1918.8
2014-Jul-05 13:32N 37°25' E 009°17'1919.2
2014-Jul-05 12:33N 37°20' E 008°54'2420.3
2014-Jul-05 11:22N 37°15' E 008°24'7820.6
2014-Jul-05 07:33N 37°22' E 006°45'2019.6
2014-Jul-05 06:33N 37°23' E 006°21'1919.3
2014-Jul-05 05:33N 37°24' E 005°56'2019.9
2014-Jul-05 04:33N 37°21' E 005°32'4720.5
2014-Jul-05 02:15N 37°13' E 004°33'1420.6
2014-Jul-05 01:33N 37°11' E 004°15'2121.0
2014-Jul-05 00:33N 37°08' E 003°49'2220.8
2014-Jul-04 23:30N 37°05' E 003°22'2020.9
2014-Jul-04 22:33N 37°02' E 002°58'2120.6
2014-Jul-04 21:33N 36°58' E 002°32'2220.4
2014-Jul-04 20:30N 36°55' E 002°05'1920.4
2014-Jul-04 19:32N 36°52' E 001°41'6220.6
2014-Jul-04 16:33N 36°42' E 000°25'2120.8
2014-Jul-04 15:33N 36°39' W 000°00'2020.5
2014-Jul-04 14:33N 36°36' W 000°25'23821.3
2014-Jul-04 03:22N 35°59' W 005°17'15121.4
2014-Jul-03 20:20N 36°22' W 008°22'1721.9
2014-Jul-03 19:33N 36°26' W 008°42'2221.7
2014-Jul-03 18:33N 36°32' W 009°08'4120.2
2014-Jul-03 16:33N 37°05' W 009°38'2222.3
2014-Jul-03 15:33N 37°26' W 009°45'2222.2
2014-Jul-03 14:33N 37°48' W 009°51'2222.4
2014-Jul-03 13:33N 38°10' W 009°59'2422.2
2014-Jul-03 12:28N 38°33' W 010°05'77220.2
2014-Jul-01 22:08N 50°07' W 002°09'1118.6
2014-Jul-01 21:33N 50°10' W 001°53'2119.3
2014-Jul-01 20:29N 50°16' W 001°22'2021.2
2014-Jul-01 19:33N 50°21' W 000°52'2322.7
2014-Jul-01 18:34N 50°27' W 000°18'2323.0
2014-Jul-01 17:34N 50°34' E 000°17'2222.3
2014-Jul-01 16:33N 50°43' E 000°48'2121.1
2014-Jul-01 15:33N 50°57' E 001°15'1919.0
2014-Jul-01 14:33N 51°08' E 001°38'1919.3
2014-Jul-01 13:33N 51°24' E 001°56'2121.1
2014-Jul-01 12:33N 51°40' E 002°18'2322.5
2014-Jul-01 11:33N 51°57' E 002°42'2321.5
2014-Jul-01 10:29N 52°04' E 003°18'1819.3
2014-Jul-01 09:33N 52°03' E 003°47'1010.4
2014-Jul-01 08:33N 51°59' E 004°03'2 2.1
2014-Jul-01 07:33N 51°57' E 004°02'0 0.0
2014-Jul-01 06:33N 51°57' E 004°02'0 0.0
2014-Jul-01 05:33N 51°57' E 004°02'0 0.0
2014-Jul-01 04:33N 51°57' E 004°02'0 0.0
2014-Jul-01 03:33N 51°57' E 004°02'0 0.0
2014-Jul-01 02:30N 51°57' E 004°02'0 0.0
2014-Jul-01 01:33N 51°57' E 004°02'0 0.0
2014-Jul-01 00:27N 51°57' E 004°02'0 0.0
2014-Jun-30 23:33N 51°57' E 004°02'0 0.0
2014-Jun-30 22:24N 51°57' E 004°02'0 0.0
2014-Jun-30 21:33N 51°57' E 004°02'0 0.0
2014-Jun-30 20:33N 51°57' E 004°02'0 0.0
2014-Jun-30 19:30N 51°57' E 004°02'0 0.0
2014-Jun-30 18:33N 51°57' E 004°02'0 0.0
2014-Jun-30 17:24N 51°57' E 004°02'0 0.0
2014-Jun-30 16:15N 51°57' E 004°02'0 0.0
2014-Jun-30 15:33N 51°57' E 004°02'0 0.0
2014-Jun-30 14:27N 51°57' E 004°02'0 0.0
2014-Jun-30 13:33N 51°57' E 004°02'1 1.2
2014-Jun-30 12:33N 51°58' E 004°04'5 5.0
2014-Jun-30 11:33N 52°01' E 003°57'8 7.5
2014-Jun-30 10:33N 52°02' E 003°45'8 8.5
2014-Jun-30 09:33N 52°11' E 003°46'1010.4
2014-Jun-30 08:33N 52°21' E 003°48'1211.7
2014-Jun-30 07:34N 52°32' E 003°52'1110.7
2014-Jun-30 06:33N 52°43' E 003°55'1111.2
2014-Jun-30 05:33N 52°54' E 003°59'1111.3
2014-Jun-30 04:33N 53°03' E 004°11'1212.3
2014-Jun-30 03:33N 53°12' E 004°24'1513.7
2014-Jun-30 02:28N 53°26' E 004°33'1313.7
2014-Jun-30 01:33N 53°38' E 004°39'1413.3
2014-Jun-30 00:29N 53°52' E 004°46'  
Track history (hours):
 
Tides and Currents Weather Stations Pressure Air Temp Water Temp Dewpoint Dewpoint Depression Visibility Wind Speed Wind Dir Waves Ship Positions

Ice Star

Last reported at 2014-Jul-10 00:16 UTC. Time now 2014-Jul-24 15:29 UTC.
Position N 31°12' E 032°20'.
Warning: this ship's position is 14 days out of date.

Length 367 m; draft 13.4 m.

Type: Ship. MMSI: 220596000.

Date/timePositionNaut miles runAvg speedWind from/ knotsBaromVisibWave heightAir tempDewpointWater temp
2014-Jul-10 00:16N 31°12' E 032°20'13 7.6
2014-Jul-09 22:33N 31°25' E 032°21'2 2.1
2014-Jul-09 21:32N 31°26' E 032°19'0 0.0
2014-Jul-09 20:32N 31°26' E 032°19'0 0.0
2014-Jul-09 19:32N 31°26' E 032°19'0 0.0
2014-Jul-09 18:32N 31°26' E 032°19'0 0.3
2014-Jul-09 17:33N 31°26' E 032°19'4 4.4
2014-Jul-09 16:33N 31°29' E 032°15'1111.2
2014-Jul-09 15:33N 31°37' E 032°06'1816.4
2014-Jul-09 14:27N 31°50' E 031°51'1819.8
2014-Jul-09 13:34N 32°01' E 031°35'2019.6
2014-Jul-09 12:33N 32°14' E 031°16'2019.9
2014-Jul-09 11:33N 32°26' E 030°58'2019.8
2014-Jul-09 10:33N 32°39' E 030°40'2019.7
2014-Jul-09 09:34N 32°51' E 030°21'2019.8
2014-Jul-09 08:34N 33°03' E 030°03'2019.9
2014-Jul-09 07:34N 33°16' E 029°44'2020.0
2014-Jul-09 06:33N 33°29' E 029°26'2420.1
2014-Jul-09 05:23N 33°44' E 029°04'2119.8
2014-Jul-09 04:20N 33°56' E 028°45'2519.9
2014-Jul-09 03:04N 34°12' E 028°21'13120.0
2014-Jul-08 20:33N 35°34' E 026°17'2019.7
2014-Jul-08 19:31N 35°44' E 025°55'1919.9
2014-Jul-08 18:33N 35°55' E 025°36'1919.4
2014-Jul-08 17:33N 36°05' E 025°15'1919.3
2014-Jul-08 16:33N 36°15' E 024°54'1919.2
2014-Jul-08 15:33N 36°24' E 024°34'1919.2
2014-Jul-08 14:33N 36°34' E 024°13'1919.3
2014-Jul-08 13:34N 36°52' E 024°04'5719.1
2014-Jul-08 10:33N 37°46' E 023°39'1111.3
2014-Jul-08 09:33N 37°57' E 023°36'0 0.4
2014-Jul-08 08:29N 37°57' E 023°35'0 0.0
2014-Jul-08 07:32N 37°57' E 023°35'0 0.0
2014-Jul-08 06:32N 37°57' E 023°35'0 0.0
2014-Jul-08 05:29N 37°57' E 023°35'0 0.0
2014-Jul-08 04:32N 37°57' E 023°35'0 0.0
2014-Jul-08 03:32N 37°57' E 023°35'0 0.0
2014-Jul-08 02:32N 37°57' E 023°35'0 0.0
2014-Jul-08 01:32N 37°57' E 023°35'0 0.0
2014-Jul-08 00:32N 37°57' E 023°35'0 0.0
2014-Jul-07 23:32N 37°57' E 023°35'0 0.0
2014-Jul-07 22:32N 37°57' E 023°35'0 0.0
2014-Jul-07 21:32N 37°57' E 023°35'0 0.0
2014-Jul-07 20:32N 37°57' E 023°35'0 0.0
2014-Jul-07 19:32N 37°57' E 023°35'0 0.0
2014-Jul-07 18:32N 37°57' E 023°35'0 0.0
2014-Jul-07 17:32N 37°57' E 023°35'0 0.0
2014-Jul-07 16:32N 37°57' E 023°35'0 0.0
2014-Jul-07 15:32N 37°57' E 023°35'0 0.0
2014-Jul-07 14:32N 37°57' E 023°35'0 0.0
2014-Jul-07 13:32N 37°57' E 023°35'0 0.0
2014-Jul-07 12:33N 37°57' E 023°35'8 7.7
2014-Jul-07 11:33N 37°50' E 023°39'1414.0
2014-Jul-07 10:33N 37°37' E 023°46'1313.1
2014-Jul-07 09:32N 37°24' E 023°42'1412.9
2014-Jul-07 08:25N 37°10' E 023°39'1113.0
2014-Jul-07 07:33N 36°59' E 023°37'1312.6
2014-Jul-07 06:33N 36°47' E 023°31'1312.7
2014-Jul-07 05:31N 36°36' E 023°22'1212.7
2014-Jul-07 04:33N 36°25' E 023°15'38017.1
2014-Jul-06 06:24N 36°20' E 015°23'1517.5
2014-Jul-06 05:33N 36°20' E 015°05'1817.7
2014-Jul-06 04:33N 36°20' E 014°43'1817.5
2014-Jul-06 03:33N 36°24' E 014°22'1818.0
2014-Jul-06 02:34N 36°30' E 014°01'1818.0
2014-Jul-06 01:33N 36°36' E 013°39'1817.9
2014-Jul-06 00:33N 36°42' E 013°18'1818.2
2014-Jul-05 23:33N 36°48' E 012°57'1818.3
2014-Jul-05 22:34N 36°55' E 012°36'1818.2
2014-Jul-05 21:33N 37°01' E 012°15'1818.2
2014-Jul-05 20:33N 37°08' E 011°53'1818.3
2014-Jul-05 19:33N 37°14' E 011°32'1818.1
2014-Jul-05 18:33N 37°22' E 011°11'1818.3
2014-Jul-05 17:33N 37°26' E 010°49'1818.1
2014-Jul-05 16:33N 37°31' E 010°27'1918.6
2014-Jul-05 15:33N 37°33' E 010°04'1919.2
2014-Jul-05 14:33N 37°30' E 009°40'1918.8
2014-Jul-05 13:32N 37°25' E 009°17'1919.2
2014-Jul-05 12:33N 37°20' E 008°54'2420.3
2014-Jul-05 11:22N 37°15' E 008°24'7820.6
2014-Jul-05 07:33N 37°22' E 006°45'2019.6
2014-Jul-05 06:33N 37°23' E 006°21'1919.3
2014-Jul-05 05:33N 37°24' E 005°56'2019.9
2014-Jul-05 04:33N 37°21' E 005°32'4720.5
2014-Jul-05 02:15N 37°13' E 004°33'1420.6
2014-Jul-05 01:33N 37°11' E 004°15'2121.0
2014-Jul-05 00:33N 37°08' E 003°49'2220.8
2014-Jul-04 23:30N 37°05' E 003°22'2020.9
2014-Jul-04 22:33N 37°02' E 002°58'2120.6
2014-Jul-04 21:33N 36°58' E 002°32'2220.4
2014-Jul-04 20:30N 36°55' E 002°05'1920.4
2014-Jul-04 19:32N 36°52' E 001°41'6220.6
2014-Jul-04 16:33N 36°42' E 000°25'2120.8
2014-Jul-04 15:33N 36°39' W 000°00'2020.5
2014-Jul-04 14:33N 36°36' W 000°25'23821.3
2014-Jul-04 03:22N 35°59' W 005°17'15121.4
2014-Jul-03 20:20N 36°22' W 008°22'1721.9
2014-Jul-03 19:33N 36°26' W 008°42'2221.7
2014-Jul-03 18:33N 36°32' W 009°08'4120.2
2014-Jul-03 16:33N 37°05' W 009°38'2222.3
2014-Jul-03 15:33N 37°26' W 009°45'2222.2
2014-Jul-03 14:33N 37°48' W 009°51'2222.4
2014-Jul-03 13:33N 38°10' W 009°59'2422.2
2014-Jul-03 12:28N 38°33' W 010°05'77220.2
2014-Jul-01 22:08N 50°07' W 002°09'1118.6
2014-Jul-01 21:33N 50°10' W 001°53'2119.3
2014-Jul-01 20:29N 50°16' W 001°22'2021.2
2014-Jul-01 19:33N 50°21' W 000°52'2322.7
2014-Jul-01 18:34N 50°27' W 000°18'2323.0
2014-Jul-01 17:34N 50°34' E 000°17'2222.3
2014-Jul-01 16:33N 50°43' E 000°48'2121.1
2014-Jul-01 15:33N 50°57' E 001°15'1919.0
2014-Jul-01 14:33N 51°08' E 001°38'1919.3
2014-Jul-01 13:33N 51°24' E 001°56'2121.1
2014-Jul-01 12:33N 51°40' E 002°18'2322.5
2014-Jul-01 11:33N 51°57' E 002°42'2321.5
2014-Jul-01 10:29N 52°04' E 003°18'1819.3
2014-Jul-01 09:33N 52°03' E 003°47'1010.4
2014-Jul-01 08:33N 51°59' E 004°03'2 2.1
2014-Jul-01 07:33N 51°57' E 004°02'0 0.0
2014-Jul-01 06:33N 51°57' E 004°02'0 0.0
2014-Jul-01 05:33N 51°57' E 004°02'0 0.0
2014-Jul-01 04:33N 51°57' E 004°02'0 0.0
2014-Jul-01 03:33N 51°57' E 004°02'0 0.0
2014-Jul-01 02:30N 51°57' E 004°02'0 0.0
2014-Jul-01 01:33N 51°57' E 004°02'0 0.0
2014-Jul-01 00:27N 51°57' E 004°02'0 0.0
2014-Jun-30 23:33N 51°57' E 004°02'0 0.0
2014-Jun-30 22:24N 51°57' E 004°02'0 0.0
2014-Jun-30 21:33N 51°57' E 004°02'0 0.0
2014-Jun-30 20:33N 51°57' E 004°02'0 0.0
2014-Jun-30 19:30N 51°57' E 004°02'0 0.0
2014-Jun-30 18:33N 51°57' E 004°02'0 0.0
2014-Jun-30 17:24N 51°57' E 004°02'0 0.0
2014-Jun-30 16:15N 51°57' E 004°02'0 0.0
2014-Jun-30 15:33N 51°57' E 004°02'0 0.0
2014-Jun-30 14:27N 51°57' E 004°02'0 0.0
2014-Jun-30 13:33N 51°57' E 004°02'1 1.2
2014-Jun-30 12:33N 51°58' E 004°04'5 5.0
2014-Jun-30 11:33N 52°01' E 003°57'8 7.5
2014-Jun-30 10:33N 52°02' E 003°45'8 8.5
2014-Jun-30 09:33N 52°11' E 003°46'1010.4
2014-Jun-30 08:33N 52°21' E 003°48'1211.7
2014-Jun-30 07:34N 52°32' E 003°52'1110.7
2014-Jun-30 06:33N 52°43' E 003°55'1111.2
2014-Jun-30 05:33N 52°54' E 003°59'1111.3
2014-Jun-30 04:33N 53°03' E 004°11'1212.3
2014-Jun-30 03:33N 53°12' E 004°24'1513.7
2014-Jun-30 02:28N 53°26' E 004°33'1313.7
2014-Jun-30 01:33N 53°38' E 004°39'1413.3
2014-Jun-30 00:29N 53°52' E 004°46'  

Dump ship's entire track history